Buoy 62726

sailwx.info

Track history (hours):
 
Tides and Currents Weather Stations Pressure Air Temp Water Temp Dewpoint Dewpoint Depression Visibility Wind Speed Wind Dir Waves Ship Positions

Drifting buoy 62726

Last reported at 2015-May-23 08:00 UTC. Time now 2015-May-24 05:18 UTC.
Position N 37°56' W 018°43'.

Water temperature 17.6 ° C

Date/timePositionNaut miles runAvg speedWind from/ knotsBaromVisibWave heightAir tempDewpointWater temp
2015-May-23 08:00N 37°56' W 018°43'3 0.2 17.6
2015-May-22 19:00N 37°56' W 018°47'2 0.2 17.7
2015-May-22 10:00N 37°57' W 018°50'0 0.1 17.6
2015-May-22 07:00N 37°56' W 018°50'4 0.3 17.6
2015-May-21 17:00N 37°55' W 018°55'3 0.6 17.8
2015-May-21 13:00N 37°54' W 018°57'2 2.1 17.7
2015-May-21 12:00N 37°52' W 018°59'2 0.3 17.7
2015-May-21 07:00N 37°51' W 018°59'2 0.3 17.6
2015-May-20 23:00N 37°50' W 019°01'8 0.6 17.7
2015-May-20 10:00N 37°43' W 019°05'0 0.3 17.6
2015-May-20 09:00N 37°43' W 019°05'8 0.6 17.6
2015-May-19 19:00N 37°35' W 019°07'3 0.4 17.7
2015-May-19 11:00N 37°33' W 019°04'6 1.6 17.6
2015-May-19 07:00N 37°27' W 019°02'0 0.0 17.5
2015-May-19 06:00N 37°27' W 019°02'0 0.0 17.5
2015-May-18 22:00N 37°27' W 019°02'6 5.6 17.6
2015-May-18 21:00N 37°24' W 018°55'0 0.0 17.6
2015-May-18 20:00N 37°24' W 018°55'0 0.0 17.6
2015-May-18 19:00N 37°24' W 018°55'0 0.0 17.6
2015-May-18 18:00N 37°24' W 018°55'0 0.0 17.6
2015-May-18 13:00N 37°24' W 018°55'3 3.1 17.6
2015-May-18 12:00N 37°24' W 018°52'0 0.0 17.6
2015-May-18 11:00N 37°24' W 018°52'0 0.0 17.6
2015-May-18 08:00N 37°24' W 018°52'0 0.4 17.5
2015-May-18 07:00N 37°24' W 018°51'1 0.9 17.5
2015-May-18 06:00N 37°23' W 018°50'4 4.0 17.5
2015-May-18 05:00N 37°23' W 018°45'0 0.0 17.5
2015-May-18 03:00N 37°23' W 018°45'1 0.2 17.6
2015-May-17 23:00N 37°23' W 018°44'0 0.1 17.6
2015-May-17 22:00N 37°23' W 018°44'1 1.4 17.6
2015-May-17 21:00N 37°23' W 018°42'5 2.7 17.6
2015-May-17 19:00N 37°25' W 018°36'0 0.0 17.6
2015-May-17 18:00N 37°25' W 018°36'0 0.0 17.6
2015-May-17 17:00N 37°25' W 018°36'0 0.0 17.7
2015-May-17 16:00N 37°25' W 018°36'0 0.0 17.7
2015-May-17 15:00N 37°25' W 018°36'0 0.0 17.7
2015-May-17 14:00N 37°25' W 018°36'2 0.4 17.7
2015-May-17 10:00N 37°26' W 018°34'0 0.0 17.6
2015-May-17 08:00N 37°26' W 018°34'6 1.9 17.6
2015-May-17 05:00N 37°29' W 018°28'1 0.1 17.6
2015-May-16 18:00N 37°30' W 018°27'5 0.8 17.7
2015-May-16 12:00N 37°32' W 018°22'4 0.5 17.7
2015-May-16 04:00N 37°36' W 018°20'7 0.3 17.6
2015-May-15 05:00N 37°42' W 018°16'2 0.2 17.5
2015-May-14 18:00N 37°45' W 018°15'4 0.7 17.8
2015-May-14 13:00N 37°48' W 018°16'0 0.0 17.6
2015-May-14 12:00N 37°48' W 018°16'0 0.0 17.6
2015-May-14 11:00N 37°48' W 018°16'0 0.0 17.6
2015-May-14 10:00N 37°48' W 018°16'0 0.0 17.5
2015-May-14 09:00N 37°48' W 018°16'0 0.0 17.5
2015-May-14 08:00N 37°48' W 018°16'0 0.1 17.5
2015-May-14 06:00N 37°48' W 018°17'0 0.0 17.5
2015-May-14 05:00N 37°48' W 018°17'0 0.0 17.5
2015-May-14 03:00N 37°48' W 018°17'2 1.2 17.5
2015-May-14 01:00N 37°50' W 018°16'1 0.2 17.5
2015-May-13 22:00N 37°51' W 018°16'1 1.2 17.5
2015-May-13 21:00N 37°52' W 018°16'0 0.0 17.5
2015-May-13 20:00N 37°52' W 018°16'1 0.6 17.6
2015-May-13 19:00N 37°53' W 018°17'1 0.4 17.6
2015-May-13 16:00N 37°54' W 018°18'3 0.4 17.6
2015-May-13 09:00N 37°56' W 018°20'   17.3
Track history (hours):
 
Tides and Currents Weather Stations Pressure Air Temp Water Temp Dewpoint Dewpoint Depression Visibility Wind Speed Wind Dir Waves Ship Positions

Drifting buoy 62726

Last reported at 2015-May-23 08:00 UTC. Time now 2015-May-24 05:18 UTC.
Position N 37°56' W 018°43'.

Water temperature 17.6 ° C

Date/timePositionNaut miles runAvg speedWind from/ knotsBaromVisibWave heightAir tempDewpointWater temp
2015-May-23 08:00N 37°56' W 018°43'3 0.2 17.6
2015-May-22 19:00N 37°56' W 018°47'2 0.2 17.7
2015-May-22 10:00N 37°57' W 018°50'0 0.1 17.6
2015-May-22 07:00N 37°56' W 018°50'4 0.3 17.6
2015-May-21 17:00N 37°55' W 018°55'3 0.6 17.8
2015-May-21 13:00N 37°54' W 018°57'2 2.1 17.7
2015-May-21 12:00N 37°52' W 018°59'2 0.3 17.7
2015-May-21 07:00N 37°51' W 018°59'2 0.3 17.6
2015-May-20 23:00N 37°50' W 019°01'8 0.6 17.7
2015-May-20 10:00N 37°43' W 019°05'0 0.3 17.6
2015-May-20 09:00N 37°43' W 019°05'8 0.6 17.6
2015-May-19 19:00N 37°35' W 019°07'3 0.4 17.7
2015-May-19 11:00N 37°33' W 019°04'6 1.6 17.6
2015-May-19 07:00N 37°27' W 019°02'0 0.0 17.5
2015-May-19 06:00N 37°27' W 019°02'0 0.0 17.5
2015-May-18 22:00N 37°27' W 019°02'6 5.6 17.6
2015-May-18 21:00N 37°24' W 018°55'0 0.0 17.6
2015-May-18 20:00N 37°24' W 018°55'0 0.0 17.6
2015-May-18 19:00N 37°24' W 018°55'0 0.0 17.6
2015-May-18 18:00N 37°24' W 018°55'0 0.0 17.6
2015-May-18 13:00N 37°24' W 018°55'3 3.1 17.6
2015-May-18 12:00N 37°24' W 018°52'0 0.0 17.6
2015-May-18 11:00N 37°24' W 018°52'0 0.0 17.6
2015-May-18 08:00N 37°24' W 018°52'0 0.4 17.5
2015-May-18 07:00N 37°24' W 018°51'1 0.9 17.5
2015-May-18 06:00N 37°23' W 018°50'4 4.0 17.5
2015-May-18 05:00N 37°23' W 018°45'0 0.0 17.5
2015-May-18 03:00N 37°23' W 018°45'1 0.2 17.6
2015-May-17 23:00N 37°23' W 018°44'0 0.1 17.6
2015-May-17 22:00N 37°23' W 018°44'1 1.4 17.6
2015-May-17 21:00N 37°23' W 018°42'5 2.7 17.6
2015-May-17 19:00N 37°25' W 018°36'0 0.0 17.6
2015-May-17 18:00N 37°25' W 018°36'0 0.0 17.6
2015-May-17 17:00N 37°25' W 018°36'0 0.0 17.7
2015-May-17 16:00N 37°25' W 018°36'0 0.0 17.7
2015-May-17 15:00N 37°25' W 018°36'0 0.0 17.7
2015-May-17 14:00N 37°25' W 018°36'2 0.4 17.7
2015-May-17 10:00N 37°26' W 018°34'0 0.0 17.6
2015-May-17 08:00N 37°26' W 018°34'6 1.9 17.6
2015-May-17 05:00N 37°29' W 018°28'1 0.1 17.6
2015-May-16 18:00N 37°30' W 018°27'5 0.8 17.7
2015-May-16 12:00N 37°32' W 018°22'4 0.5 17.7
2015-May-16 04:00N 37°36' W 018°20'7 0.3 17.6
2015-May-15 05:00N 37°42' W 018°16'2 0.2 17.5
2015-May-14 18:00N 37°45' W 018°15'4 0.7 17.8
2015-May-14 13:00N 37°48' W 018°16'0 0.0 17.6
2015-May-14 12:00N 37°48' W 018°16'0 0.0 17.6
2015-May-14 11:00N 37°48' W 018°16'0 0.0 17.6
2015-May-14 10:00N 37°48' W 018°16'0 0.0 17.5
2015-May-14 09:00N 37°48' W 018°16'0 0.0 17.5
2015-May-14 08:00N 37°48' W 018°16'0 0.1 17.5
2015-May-14 06:00N 37°48' W 018°17'0 0.0 17.5
2015-May-14 05:00N 37°48' W 018°17'0 0.0 17.5
2015-May-14 03:00N 37°48' W 018°17'2 1.2 17.5
2015-May-14 01:00N 37°50' W 018°16'1 0.2 17.5
2015-May-13 22:00N 37°51' W 018°16'1 1.2 17.5
2015-May-13 21:00N 37°52' W 018°16'0 0.0 17.5
2015-May-13 20:00N 37°52' W 018°16'1 0.6 17.6
2015-May-13 19:00N 37°53' W 018°17'1 0.4 17.6
2015-May-13 16:00N 37°54' W 018°18'3 0.4 17.6
2015-May-13 09:00N 37°56' W 018°20'   17.3

Dump ship's entire track history